Terminal Aerodrome Forecast
Issued by NWS Sterling, VA

Current Version | Previous Version | Graphics & Text | Print | Product List | Glossary On
Versions: 1 2 3 4 5 6 7 8 9 10 11 12 13 14 15 16 17 18 19 20 21 22
000
FTUS41 KLWX 140527
TAFDCA
TAF
KDCA 140527Z 1406/1506 04005KT 4SM -RAPL OVC060
     FM141200 07005KT 3SM -FZRAPL OVC035
     FM141500 11004KT 3SM -FZRAPL OVC015
     FM141800 13004KT 3SM -FZRA OVC008
     FM142100 14004KT 3SM -RA OVC008=

USA.gov is the U.S. government's official web portal to all federal, state and local government web resources and services.